Time;durP1;ratioP1;P1;durP2;ratioP2;P2;SDS_P1;SDS_P2;PMS_P1;PMS_P2;Temp;Humidity;BMP_temperature;BMP_pressure;BME280_temperature;BME280_humidity;BME280_pressure;Samples;Min_cycle;Max_cycle;Signal;HPM_P1;HPM_P2
2023/02/23 00:02:16;;;;;;;5.35;3.47;;;;;;;;;;5049938;28;20033;-61
2023/02/23 00:04:42;;;;;;;5.53;3.92;;;;;;;;;;5049145;28;20437;-62
2023/02/23 00:07:09;;;;;;;5.20;3.72;;;;;;;;;;5051584;28;20103;-61
2023/02/23 00:09:35;;;;;;;5.82;4.07;;;;;;;;;;5051185;28;20219;-61
2023/02/23 00:12:08;;;;;;;5.80;3.85;;;;;;;;;;5051654;28;20060;-62
2023/02/23 00:14:36;;;;;;;5.78;3.63;;;;;;;;;;5034423;28;20490;-61
2023/02/23 00:17:02;;;;;;;6.07;4.10;;;;;;;;;;5031867;28;20033;-61
2023/02/23 00:19:28;;;;;;;5.07;3.72;;;;;;;;;;5033274;28;20367;-62
2023/02/23 00:21:57;;;;;;;6.20;4.60;;;;;;;;;;5034939;28;20164;-61
2023/02/23 00:24:25;;;;;;;6.10;4.28;;;;;;;;;;5031689;28;20032;-61
2023/02/23 00:26:52;;;;;;;5.78;3.97;;;;;;;;;;5035412;28;20040;-60
2023/02/23 00:29:19;;;;;;;4.80;3.78;;;;;;;;;;5050596;28;20025;-61
2023/02/23 00:31:46;;;;;;;4.70;3.45;;;;;;;;;;5049597;28;20125;-61
2023/02/23 00:34:12;;;;;;;5.05;3.85;;;;;;;;;;5047581;28;20021;-61
2023/02/23 00:36:38;;;;;;;4.68;4.05;;;;;;;;;;5033967;28;20033;-61
2023/02/23 00:39:16;;;;;;;7.28;4.10;;;;;;;;;;5031518;28;20029;-61
2023/02/23 00:41:43;;;;;;;4.82;3.90;;;;;;;;;;5050638;28;20511;-61
2023/02/23 00:44:09;;;;;;;5.03;3.90;;;;;;;;;;5039855;28;20029;-61
2023/02/23 00:46:35;;;;;;;6.55;4.03;;;;;;;;;;5030876;28;20048;-61
2023/02/23 00:49:00;;;;;;;5.70;4.28;;;;;;;;;;5031586;28;20037;-61
2023/02/23 00:51:29;;;;;;;7.13;4.38;;;;;;;;;;5048882;28;20494;-61
2023/02/23 00:53:56;;;;;;;5.88;4.53;;;;;;;;;;5031484;28;20036;-61
2023/02/23 00:56:22;;;;;;;6.85;4.15;;;;;;;;;;5031184;28;20522;-68
2023/02/23 00:58:48;;;;;;;5.50;3.90;;;;;;;;;;5030984;28;20021;-61
2023/02/23 01:01:14;;;;;;;6.00;4.78;;;;;;;;;;5032464;28;20116;-61
2023/02/23 01:03:41;;;;;;;4.25;3.50;;;;;;;;;;5031044;28;20064;-61
2023/02/23 01:06:08;;;;;;;6.75;4.40;;;;;;;;;;5034009;28;20022;-61
2023/02/23 01:08:39;;;;;;;5.40;4.30;;;;;;;;;;5050231;28;20033;-60
2023/02/23 01:11:13;;;;;;;5.07;3.90;;;;;;;;;;5050531;28;20108;-61
2023/02/23 01:13:40;;;;;;;6.47;4.45;;;;;;;;;;5043557;28;20036;-61
2023/02/23 01:16:06;;;;;;;5.10;4.07;;;;;;;;;;5030759;28;20041;-61
2023/02/23 01:18:33;;;;;;;5.18;4.20;;;;;;;;;;5030823;28;20482;-60
2023/02/23 01:20:59;;;;;;;5.90;4.47;;;;;;;;;;5032073;28;20550;-61
2023/02/23 01:23:25;;;;;;;6.13;3.95;;;;;;;;;;5041842;28;20029;-61
2023/02/23 01:25:51;;;;;;;5.03;3.97;;;;;;;;;;5031082;28;20030;-61
2023/02/23 01:28:17;;;;;;;5.88;4.10;;;;;;;;;;5030855;28;20033;-61
2023/02/23 01:30:43;;;;;;;5.20;4.10;;;;;;;;;;5034529;28;20033;-61
2023/02/23 01:33:11;;;;;;;5.88;4.38;;;;;;;;;;5036293;28;20022;-61
2023/02/23 01:35:37;;;;;;;5.95;4.40;;;;;;;;;;5046790;28;20041;-61
2023/02/23 01:38:04;;;;;;;5.95;4.10;;;;;;;;;;5035700;28;20494;-61
2023/02/23 01:40:30;;;;;;;4.93;4.00;;;;;;;;;;5041858;28;20090;-62
2023/02/23 01:42:56;;;;;;;4.45;3.60;;;;;;;;;;5053946;28;20025;-61
2023/02/23 01:45:25;;;;;;;5.38;3.80;;;;;;;;;;5034611;28;20655;-61
2023/02/23 01:47:53;;;;;;;6.13;3.95;;;;;;;;;;5034093;28;20026;-61
2023/02/23 01:50:19;;;;;;;6.10;4.00;;;;;;;;;;5048335;28;20017;-61
2023/02/23 01:52:46;;;;;;;5.50;3.95;;;;;;;;;;5050634;28;20476;-60
2023/02/23 01:55:13;;;;;;;7.45;4.30;;;;;;;;;;5037524;28;20075;-61
2023/02/23 01:57:40;;;;;;;5.60;4.70;;;;;;;;;;5034342;28;20071;-61
2023/02/23 02:00:12;;;;;;;6.45;4.32;;;;;;;;;;5034667;28;20385;-60
2023/02/23 02:02:38;;;;;;;5.95;4.38;;;;;;;;;;5020566;28;20064;-61
2023/02/23 02:05:07;;;;;;;5.38;4.07;;;;;;;;;;5050000;28;20053;-61
2023/02/23 02:07:34;;;;;;;6.85;4.60;;;;;;;;;;5053564;28;20485;-61
2023/02/23 02:10:38;;;;;;;5.50;4.30;;;;;;;;;;5054055;28;20079;-61
2023/02/23 02:12:50;;;;;;;5.85;4.68;;;;;;;;;;5053830;28;20037;-61
2023/02/23 02:15:17;;;;;;;5.55;4.57;;;;;;;;;;5035253;28;20033;-61
2023/02/23 02:17:43;;;;;;;5.25;3.75;;;;;;;;;;5034661;28;20069;-61
2023/02/23 02:20:13;;;;;;;6.10;3.88;;;;;;;;;;5023747;28;20096;-62
2023/02/23 02:22:54;;;;;;;6.07;4.57;;;;;;;;;;5034848;28;20466;-61
2023/02/23 02:25:44;;;;;;;6.13;4.07;;;;;;;;;;5045700;28;20029;-60
2023/02/23 02:28:09;;;;;;;7.75;4.57;;;;;;;;;;5034082;28;20021;-61
2023/02/23 02:30:47;;;;;;;5.57;3.90;;;;;;;;;;5034596;28;20109;-61
2023/02/23 02:33:17;;;;;;;6.47;4.43;;;;;;;;;;5034272;28;20025;-61
2023/02/23 02:36:01;;;;;;;4.97;3.67;;;;;;;;;;5038246;28;20045;-61
2023/02/23 02:38:27;;;;;;;6.70;3.97;;;;;;;;;;5053737;28;20057;-61
2023/02/23 02:41:13;;;;;;;4.75;3.45;;;;;;;;;;5050495;28;20052;-61
2023/02/23 02:43:41;;;;;;;5.35;4.10;;;;;;;;;;5037047;28;20043;-61
2023/02/23 02:46:07;;;;;;;5.03;3.83;;;;;;;;;;5052807;28;20098;-61
2023/02/23 02:48:37;;;;;;;6.85;4.47;;;;;;;;;;5052807;28;20021;-61
2023/02/23 02:51:21;;;;;;;4.53;3.67;;;;;;;;;;5051015;28;20163;-61
2023/02/23 02:54:05;;;;;;;4.82;3.90;;;;;;;;;;5047544;28;20113;-60
2023/02/23 02:56:32;;;;;;;6.63;4.70;;;;;;;;;;5040628;28;20048;-61
2023/02/23 02:59:00;;;;;;;5.75;3.92;;;;;;;;;;5033493;28;20108;-61
2023/02/23 04:17:46;;;;;;;5.40;4.05;;;;;;;;;;5031831;28;20036;-62
2023/02/23 04:20:13;;;;;;;6.05;4.50;;;;;;;;;;5032685;28;20071;-62
2023/02/23 04:22:39;;;;;;;4.63;3.70;;;;;;;;;;5031512;28;20155;-62
2023/02/23 04:25:07;;;;;;;4.88;3.78;;;;;;;;;;5031725;28;20030;-61
2023/02/23 04:27:33;;;;;;;4.32;3.53;;;;;;;;;;5031288;28;20033;-62
2023/02/23 04:30:00;;;;;;;4.78;4.07;;;;;;;;;;5040684;28;20036;-63
2023/02/23 04:32:26;;;;;;;4.75;3.45;;;;;;;;;;5033941;28;20395;-61
2023/02/23 04:34:52;;;;;;;6.20;3.95;;;;;;;;;;5031706;28;20427;-62
2023/02/23 04:37:18;;;;;;;5.85;3.95;;;;;;;;;;5046635;28;20221;-61
2023/02/23 04:39:48;;;;;;;5.10;4.00;;;;;;;;;;5049241;28;20130;-61
2023/02/23 04:42:14;;;;;;;5.30;3.83;;;;;;;;;;5020624;28;20100;-61
2023/02/23 04:44:40;;;;;;;4.55;3.75;;;;;;;;;;5033041;28;20033;-62
2023/02/23 04:47:06;;;;;;;5.32;3.80;;;;;;;;;;5051355;28;20033;-62
2023/02/23 04:49:32;;;;;;;6.80;3.83;;;;;;;;;;5050336;28;20063;-62
2023/02/23 04:51:58;;;;;;;4.57;3.63;;;;;;;;;;5048855;28;20037;-61
2023/02/23 04:54:24;;;;;;;6.93;4.50;;;;;;;;;;5050770;28;20021;-62
2023/02/23 04:56:51;;;;;;;5.45;3.83;;;;;;;;;;5031480;28;20045;-62
2023/02/23 04:59:17;;;;;;;5.80;4.18;;;;;;;;;;5033734;28;20020;-62
2023/02/23 05:01:43;;;;;;;5.75;3.72;;;;;;;;;;5039869;28;20037;-62
2023/02/23 05:04:09;;;;;;;4.32;3.47;;;;;;;;;;5031097;28;20029;-61
2023/02/23 05:06:35;;;;;;;5.43;3.95;;;;;;;;;;5044586;28;20389;-61
2023/02/23 05:09:02;;;;;;;5.38;4.18;;;;;;;;;;5051190;28;20124;-61
2023/02/23 05:11:28;;;;;;;4.90;3.80;;;;;;;;;;5036720;28;20033;-62
2023/02/23 05:13:54;;;;;;;4.80;3.88;;;;;;;;;;5030733;28;20057;-61
2023/02/23 05:16:20;;;;;;;4.72;4.03;;;;;;;;;;5030435;28;20046;-62
2023/02/23 05:18:46;;;;;;;5.90;4.00;;;;;;;;;;5030579;28;20040;-62
2023/02/23 05:21:12;;;;;;;4.72;3.85;;;;;;;;;;5039954;28;20119;-62
2023/02/23 05:23:38;;;;;;;4.82;3.60;;;;;;;;;;5048448;28;20504;-62
2023/02/23 05:26:08;;;;;;;6.65;4.78;;;;;;;;;;5050374;28;20033;-62
2023/02/23 05:28:35;;;;;;;4.53;3.90;;;;;;;;;;5049207;28;20051;-62
2023/02/23 05:31:04;;;;;;;4.85;4.00;;;;;;;;;;5034311;28;20033;-62
2023/02/23 05:33:34;;;;;;;4.10;3.53;;;;;;;;;;5030876;28;20029;-62
2023/02/23 05:36:00;;;;;;;5.35;4.30;;;;;;;;;;5016165;28;20489;-61
2023/02/23 05:38:26;;;;;;;4.10;3.60;;;;;;;;;;5047873;28;20025;-61
2023/02/23 05:40:53;;;;;;;4.47;3.35;;;;;;;;;;5040825;28;20413;-62
2023/02/23 05:43:19;;;;;;;4.40;3.30;;;;;;;;;;5030395;28;20025;-61
2023/02/23 05:45:45;;;;;;;5.00;3.90;;;;;;;;;;5031698;28;20390;-61
2023/02/23 05:48:12;;;;;;;4.35;3.33;;;;;;;;;;5030594;28;20108;-62
2023/02/23 05:50:38;;;;;;;4.53;3.88;;;;;;;;;;5031547;28;20060;-61
2023/02/23 05:53:04;;;;;;;4.22;3.38;;;;;;;;;;5042051;28;20064;-61
2023/02/23 05:55:30;;;;;;;5.15;3.95;;;;;;;;;;5035143;28;20116;-62
2023/02/23 05:57:56;;;;;;;5.53;3.90;;;;;;;;;;5047786;28;20448;-61
2023/02/23 06:00:23;;;;;;;3.90;3.47;;;;;;;;;;5037519;28;20033;-61
2023/02/23 06:02:51;;;;;;;5.82;3.97;;;;;;;;;;5030611;28;20021;-61
2023/02/23 06:05:17;;;;;;;4.72;3.92;;;;;;;;;;5044780;28;20041;-62
2023/02/23 06:07:44;;;;;;;4.68;3.28;;;;;;;;;;5049537;28;20021;-61
2023/02/23 06:10:10;;;;;;;4.78;3.40;;;;;;;;;;5047020;28;20116;-61
2023/02/23 06:12:36;;;;;;;4.25;3.40;;;;;;;;;;5031261;28;20030;-61
2023/02/23 06:15:02;;;;;;;5.18;3.78;;;;;;;;;;5030635;28;20036;-61
2023/02/23 06:17:28;;;;;;;4.82;3.95;;;;;;;;;;5031312;28;20123;-61
2023/02/23 06:19:54;;;;;;;4.32;3.40;;;;;;;;;;5031470;28;20155;-61
2023/02/23 06:22:20;;;;;;;5.47;3.33;;;;;;;;;;5041051;28;20578;-61
2023/02/23 06:24:46;;;;;;;5.45;3.75;;;;;;;;;;5051322;28;20100;-61
2023/02/23 06:27:12;;;;;;;4.53;3.30;;;;;;;;;;5051987;28;20473;-61
2023/02/23 06:29:38;;;;;;;4.47;4.00;;;;;;;;;;5051976;28;20037;-61
2023/02/23 06:32:05;;;;;;;4.05;3.42;;;;;;;;;;5044450;28;20021;-62
2023/02/23 06:34:31;;;;;;;3.72;3.13;;;;;;;;;;5034515;28;20038;-66
2023/02/23 06:36:57;;;;;;;4.63;3.40;;;;;;;;;;5049665;28;20033;-61
2023/02/23 06:39:23;;;;;;;3.40;3.05;;;;;;;;;;5045300;28;20025;-61
2023/02/23 06:41:49;;;;;;;5.75;3.75;;;;;;;;;;5034428;28;20022;-63
2023/02/23 06:44:15;;;;;;;4.03;3.03;;;;;;;;;;5033091;28;20536;-62
2023/02/23 06:46:41;;;;;;;4.20;3.30;;;;;;;;;;5049053;28;20021;-61
2023/02/23 06:49:07;;;;;;;4.00;3.47;;;;;;;;;;5036156;28;20029;-61
2023/02/23 06:51:33;;;;;;;4.82;3.42;;;;;;;;;;5050667;28;20452;-61
2023/02/23 06:53:59;;;;;;;4.30;3.28;;;;;;;;;;5033350;28;20029;-61
2023/02/23 06:56:25;;;;;;;4.63;3.28;;;;;;;;;;5033194;28;20033;-62
2023/02/23 06:58:51;;;;;;;4.43;3.53;;;;;;;;;;5033396;28;20413;-61
2023/02/23 07:01:18;;;;;;;4.95;3.22;;;;;;;;;;5045694;28;20029;-61
2023/02/23 07:03:44;;;;;;;4.53;3.50;;;;;;;;;;5048629;28;20044;-61
2023/02/23 07:06:10;;;;;;;7.15;3.60;;;;;;;;;;5033332;28;20022;-61
2023/02/23 07:08:36;;;;;;;7.25;4.18;;;;;;;;;;5033216;28;20037;-61
2023/02/23 07:11:06;;;;;;;6.45;3.75;;;;;;;;;;5032976;28;20095;-61
2023/02/23 07:13:32;;;;;;;4.75;3.50;;;;;;;;;;5032822;28;20403;-61
2023/02/23 07:15:58;;;;;;;8.02;3.28;;;;;;;;;;5033161;28;20113;-61
2023/02/23 07:18:24;;;;;;;5.63;4.10;;;;;;;;;;5032343;28;20112;-60
2023/02/23 07:20:53;;;;;;;5.57;3.78;;;;;;;;;;5040256;28;20036;-61
2023/02/23 07:23:19;;;;;;;6.80;4.10;;;;;;;;;;5043331;28;20075;-60
2023/02/23 07:25:45;;;;;;;9.60;4.90;;;;;;;;;;5032410;28;20029;-61
2023/02/23 07:28:14;;;;;;;8.15;5.30;;;;;;;;;;5032706;28;20096;-61
2023/02/23 07:30:40;;;;;;;13.23;5.97;;;;;;;;;;5032991;28;20033;-61
2023/02/23 07:33:06;;;;;;;10.68;6.03;;;;;;;;;;5033200;28;20021;-61
2023/02/23 07:35:32;;;;;;;14.80;5.97;;;;;;;;;;5031128;28;20053;-61
2023/02/23 07:37:58;;;;;;;11.20;6.18;;;;;;;;;;5031635;28;20032;-60
2023/02/23 07:40:24;;;;;;;10.00;6.30;;;;;;;;;;5036084;28;20116;-62
2023/02/23 07:42:50;;;;;;;11.60;6.13;;;;;;;;;;5050044;28;20025;-61
2023/02/23 07:45:16;;;;;;;13.05;6.32;;;;;;;;;;5047290;28;20030;-61
2023/02/23 07:47:42;;;;;;;13.43;6.43;;;;;;;;;;5031433;28;20494;-61
2023/02/23 07:50:09;;;;;;;13.75;6.15;;;;;;;;;;5043877;28;20029;-61
2023/02/23 07:52:36;;;;;;;10.77;6.63;;;;;;;;;;5050248;28;20040;-66
2023/02/23 07:55:02;;;;;;;11.52;6.60;;;;;;;;;;5032397;28;20082;-61
2023/02/23 07:57:28;;;;;;;12.10;6.90;;;;;;;;;;5032205;28;20033;-65
2023/02/23 07:59:54;;;;;;;16.05;6.47;;;;;;;;;;5032423;28;20585;-66
2023/02/23 08:02:20;;;;;;;11.27;6.25;;;;;;;;;;5032203;28;20037;-65
2023/02/23 08:04:46;;;;;;;15.52;6.68;;;;;;;;;;5032333;28;20056;-61
2023/02/23 08:07:12;;;;;;;14.38;5.90;;;;;;;;;;5031984;28;20026;-61
2023/02/23 08:09:38;;;;;;;9.38;5.43;;;;;;;;;;5032504;28;20033;-62
2023/02/23 08:12:04;;;;;;;9.50;6.45;;;;;;;;;;5032469;28;20497;-64
2023/02/23 08:14:30;;;;;;;9.93;6.38;;;;;;;;;;5031927;28;20026;-64
2023/02/23 08:16:56;;;;;;;11.50;6.18;;;;;;;;;;5032172;28;20060;-64
2023/02/23 08:19:22;;;;;;;10.73;6.20;;;;;;;;;;5035017;28;20447;-60
2023/02/23 08:21:49;;;;;;;10.00;6.22;;;;;;;;;;5039402;28;20018;-60
2023/02/23 08:24:15;;;;;;;14.00;6.63;;;;;;;;;;5031433;28;20037;-60
2023/02/23 08:26:42;;;;;;;10.80;6.70;;;;;;;;;;5031574;28;20033;-62
2023/02/23 08:29:08;;;;;;;10.35;6.22;;;;;;;;;;5032231;28;20079;-65
2023/02/23 08:31:34;;;;;;;11.63;6.65;;;;;;;;;;5031517;28;20033;-66
2023/02/23 08:34:00;;;;;;;10.85;7.07;;;;;;;;;;5031820;28;20502;-64
2023/02/23 08:36:26;;;;;;;13.23;6.90;;;;;;;;;;5030004;28;20434;-63
2023/02/23 08:38:56;;;;;;;12.68;6.78;;;;;;;;;;5031683;28;20572;-62
2023/02/23 08:41:22;;;;;;;13.80;7.20;;;;;;;;;;5031362;28;20436;-61
2023/02/23 08:43:48;;;;;;;9.93;6.22;;;;;;;;;;5031549;28;20029;-62
2023/02/23 08:46:17;;;;;;;9.15;5.90;;;;;;;;;;5031269;28;20367;-66
2023/02/23 08:48:43;;;;;;;10.32;6.70;;;;;;;;;;5038224;28;20028;-63
2023/02/23 08:51:09;;;;;;;9.52;6.18;;;;;;;;;;5051580;28;20087;-60
2023/02/23 08:53:35;;;;;;;8.38;5.75;;;;;;;;;;5051162;28;20375;-61
2023/02/23 08:56:02;;;;;;;11.88;6.70;;;;;;;;;;5051322;28;20115;-60
2023/02/23 08:58:32;;;;;;;11.45;6.85;;;;;;;;;;5050998;28;20021;-67
2023/02/23 09:00:58;;;;;;;10.30;6.80;;;;;;;;;;5051325;28;20024;-61
2023/02/23 09:03:30;;;;;;;9.55;6.65;;;;;;;;;;5049122;28;20040;-65
2023/02/23 09:05:57;;;;;;;11.93;6.80;;;;;;;;;;5042497;28;20080;-65
2023/02/23 09:08:23;;;;;;;11.35;7.53;;;;;;;;;;5030999;28;20029;-60
2023/02/23 09:10:49;;;;;;;10.95;7.18;;;;;;;;;;5031308;28;20033;-60
2023/02/23 09:13:16;;;;;;;13.73;7.50;;;;;;;;;;5031002;28;20044;-62
2023/02/23 09:15:42;;;;;;;13.30;8.07;;;;;;;;;;5031055;28;20029;-60
2023/02/23 09:18:12;;;;;;;12.50;8.60;;;;;;;;;;5031520;28;20139;-60
2023/02/23 09:20:40;;;;;;;11.18;7.82;;;;;;;;;;5048604;28;20386;-63
2023/02/23 09:23:06;;;;;;;14.55;9.80;;;;;;;;;;5050455;28;20454;-60
2023/02/23 09:25:32;;;;;;;13.40;9.00;;;;;;;;;;5050884;28;20108;-67
2023/02/23 09:27:58;;;;;;;12.60;8.98;;;;;;;;;;5049215;28;20033;-67
2023/02/23 09:30:25;;;;;;;13.88;9.95;;;;;;;;;;5050556;28;20049;-60
2023/02/23 09:32:51;;;;;;;16.75;11.05;;;;;;;;;;5050979;28;20029;-61
2023/02/23 09:35:17;;;;;;;13.20;10.07;;;;;;;;;;5049454;28;20041;-66
2023/02/23 09:37:45;;;;;;;15.63;10.38;;;;;;;;;;5043220;28;20017;-65
2023/02/23 09:40:14;;;;;;;16.35;10.38;;;;;;;;;;5031195;28;20397;-64
2023/02/23 09:42:59;;;;;;;15.63;11.27;;;;;;;;;;5031368;28;20536;-60
2023/02/23 09:45:29;;;;;;;15.40;11.18;;;;;;;;;;5030499;28;20029;-61
2023/02/23 09:48:08;;;;;;;17.13;11.57;;;;;;;;;;5030905;28;20025;-67
2023/02/23 09:50:36;;;;;;;15.20;11.18;;;;;;;;;;5030787;28;20034;-66
2023/02/23 09:53:22;;;;;;;16.55;12.60;;;;;;;;;;5031719;28;20135;-67
2023/02/23 09:55:49;;;;;;;17.33;13.05;;;;;;;;;;5030330;28;20132;-66
2023/02/23 09:58:35;;;;;;;15.27;11.80;;;;;;;;;;5030728;28;20118;-67
2023/02/23 10:01:01;;;;;;;17.80;12.43;;;;;;;;;;5034115;28;20057;-67
2023/02/23 10:03:31;;;;;;;17.00;13.30;;;;;;;;;;5034525;28;20115;-67
2023/02/23 10:06:03;;;;;;;18.63;13.02;;;;;;;;;;5034546;28;20025;-66
2023/02/23 10:08:38;;;;;;;18.70;13.32;;;;;;;;;;5035049;28;20034;-67
2023/02/23 10:11:10;;;;;;;19.23;13.18;;;;;;;;;;5034505;28;20038;-60
2023/02/23 10:13:45;;;;;;;17.75;12.85;;;;;;;;;;5034026;28;20111;-67
2023/02/23 10:16:14;;;;;;;17.73;12.85;;;;;;;;;;5034570;28;20041;-63
2023/02/23 10:18:46;;;;;;;16.67;12.85;;;;;;;;;;5034544;28;20389;-65
2023/02/23 10:21:20;;;;;;;17.25;13.68;;;;;;;;;;5034257;28;20029;-61
2023/02/23 10:23:49;;;;;;;18.80;13.02;;;;;;;;;;5034382;28;20096;-62
2023/02/23 10:26:21;;;;;;;17.02;13.15;;;;;;;;;;5033917;28;20025;-61
2023/02/23 10:28:48;;;;;;;20.20;14.27;;;;;;;;;;5053185;28;20025;-60
2023/02/23 10:31:30;;;;;;;17.98;13.88;;;;;;;;;;5048450;28;20063;-63
2023/02/23 10:33:58;;;;;;;19.45;14.68;;;;;;;;;;5045841;28;20107;-61
2023/02/23 10:36:37;;;;;;;18.05;14.05;;;;;;;;;;5052191;28;20481;-63
2023/02/23 10:39:05;;;;;;;18.48;14.23;;;;;;;;;;5033809;28;20037;-61
2023/02/23 10:41:32;;;;;;;19.25;15.00;;;;;;;;;;5033563;28;20025;-60
2023/02/23 10:43:58;;;;;;;20.15;16.00;;;;;;;;;;5033703;28;20494;-61
2023/02/23 10:46:26;;;;;;;19.02;14.68;;;;;;;;;;5040362;28;20029;-59
2023/02/23 10:48:54;;;;;;;21.08;15.75;;;;;;;;;;5038434;28;20017;-61
2023/02/23 10:51:24;;;;;;;19.67;15.20;;;;;;;;;;5033614;28;20045;-63
2023/02/23 10:53:51;;;;;;;19.55;14.63;;;;;;;;;;5033778;28;20025;-60
2023/02/23 10:56:18;;;;;;;20.80;15.63;;;;;;;;;;5033190;28;20106;-60
2023/02/23 10:58:45;;;;;;;20.45;15.77;;;;;;;;;;5033597;28;20033;-60
2023/02/23 11:01:11;;;;;;;19.45;14.57;;;;;;;;;;5033987;28;20026;-61
2023/02/23 11:03:42;;;;;;;23.08;16.25;;;;;;;;;;5033924;28;20025;-62
2023/02/23 11:06:28;;;;;;;20.52;14.98;;;;;;;;;;5047708;28;20098;-59
2023/02/23 11:08:54;;;;;;;20.98;15.55;;;;;;;;;;5053116;28;20036;-60
2023/02/23 11:11:24;;;;;;;18.63;14.82;;;;;;;;;;5052518;28;20029;-62
2023/02/23 11:13:51;;;;;;;19.73;15.30;;;;;;;;;;5053317;28;20033;-59
2023/02/23 11:16:17;;;;;;;22.67;15.70;;;;;;;;;;5051091;28;20124;-61
2023/02/23 11:18:54;;;;;;;20.63;15.68;;;;;;;;;;5053237;28;20517;-64
2023/02/23 11:21:24;;;;;;;20.02;15.27;;;;;;;;;;5049656;28;20051;-66
2023/02/23 11:23:52;;;;;;;21.67;15.52;;;;;;;;;;5053138;28;20021;-60
2023/02/23 11:26:28;;;;;;;19.45;15.20;;;;;;;;;;5052851;28;20028;-63
2023/02/23 11:28:54;;;;;;;;;;;;;;;;;;5053442;28;20032;-61
2023/02/23 11:31:21;;;;;;;20.83;14.73;;;;;;;;;;5052726;28;20361;-60
2023/02/23 11:33:47;;;;;;;18.73;14.00;;;;;;;;;;5052943;28;20021;-62
2023/02/23 11:36:15;;;;;;;17.63;13.63;;;;;;;;;;5046423;28;20432;-66
2023/02/23 11:38:42;;;;;;;20.85;15.00;;;;;;;;;;5033182;28;20025;-62
2023/02/23 11:41:22;;;;;;;17.70;13.82;;;;;;;;;;5033197;28;20030;-62
2023/02/23 11:43:53;;;;;;;21.45;14.30;;;;;;;;;;5032734;28;20017;-64
2023/02/23 11:46:20;;;;;;;18.90;14.27;;;;;;;;;;5032361;28;20034;-62
2023/02/23 11:49:10;;;;;;;19.40;15.23;;;;;;;;;;5032741;28;20091;-60
2023/02/23 11:51:37;;;;;;;21.23;14.38;;;;;;;;;;5032885;28;20071;-60
2023/02/23 11:54:04;;;;;;;20.17;14.98;;;;;;;;;;5032564;28;20540;-62
2023/02/23 11:56:32;;;;;;;18.67;14.48;;;;;;;;;;5033247;28;20544;-60
2023/02/23 11:59:07;;;;;;;18.45;13.75;;;;;;;;;;5032208;28;20080;-62
2023/02/23 12:01:44;;;;;;;17.98;13.75;;;;;;;;;;5031365;28;20207;-62
2023/02/23 12:04:30;;;;;;;16.88;13.88;;;;;;;;;;5035285;28;20030;-60
2023/02/23 12:07:16;;;;;;;19.15;14.10;;;;;;;;;;5020618;28;20025;-63
2023/02/23 12:09:43;;;;;;;16.95;12.88;;;;;;;;;;5030082;28;20048;-60
2023/02/23 12:12:12;;;;;;;17.80;12.60;;;;;;;;;;5031976;28;20189;-62
2023/02/23 12:14:41;;;;;;;16.13;12.98;;;;;;;;;;5031720;28;20018;-60
2023/02/23 12:17:13;;;;;;;16.30;12.48;;;;;;;;;;5031293;28;20033;-61
2023/02/23 12:19:41;;;;;;;17.90;13.50;;;;;;;;;;5030213;28;20028;-61
2023/02/23 12:22:32;;;;;;;16.90;12.18;;;;;;;;;;5030841;28;20091;-60
2023/02/23 12:25:03;;;;;;;15.45;11.75;;;;;;;;;;5028270;28;20030;-63
2023/02/23 12:27:49;;;;;;;15.07;10.75;;;;;;;;;;5030740;28;20504;-60
2023/02/23 12:30:20;;;;;;;15.02;12.27;;;;;;;;;;5028396;28;20021;-61
2023/02/23 12:33:04;;;;;;;14.30;10.82;;;;;;;;;;5030937;28;20026;-60
2023/02/23 12:35:35;;;;;;;14.48;11.10;;;;;;;;;;5032794;28;20037;-59
2023/02/23 12:38:26;;;;;;;14.93;10.63;;;;;;;;;;5031216;28;20026;-62
2023/02/23 12:40:55;;;;;;;14.02;10.20;;;;;;;;;;5030532;28;20087;-65
2023/02/23 12:43:35;;;;;;;14.13;10.48;;;;;;;;;;5030956;28;20398;-59
2023/02/23 12:46:01;;;;;;;13.40;9.95;;;;;;;;;;5031644;28;20080;-60
2023/02/23 12:48:50;;;;;;;13.68;9.90;;;;;;;;;;5031369;28;20026;-60
2023/02/23 12:51:24;;;;;;;13.93;10.07;;;;;;;;;;5049046;28;20024;-61
2023/02/23 12:53:51;;;;;;;11.60;9.45;;;;;;;;;;5051345;28;20021;-60
2023/02/23 12:56:23;;;;;;;11.68;9.27;;;;;;;;;;5051062;28;20090;-60
2023/02/23 12:58:55;;;;;;;11.88;8.88;;;;;;;;;;5051375;28;20044;-61
2023/02/23 13:01:23;;;;;;;11.02;9.10;;;;;;;;;;5050691;28;20515;-60
2023/02/23 13:03:52;;;;;;;12.55;9.27;;;;;;;;;;5048521;28;20389;-59
2023/02/23 13:06:18;;;;;;;13.27;9.82;;;;;;;;;;5051035;28;20036;-61
2023/02/23 13:08:50;;;;;;;10.68;8.80;;;;;;;;;;5051183;28;20029;-60
2023/02/23 13:11:26;;;;;;;10.40;8.13;;;;;;;;;;5050989;28;20033;-63
2023/02/23 13:13:57;;;;;;;14.18;8.77;;;;;;;;;;5051125;28;20082;-59
2023/02/23 13:16:33;;;;;;;11.43;8.55;;;;;;;;;;5050756;28;20382;-59
2023/02/23 13:19:05;;;;;;;12.38;8.63;;;;;;;;;;5049510;28;20028;-59
2023/02/23 13:21:31;;;;;;;10.05;7.75;;;;;;;;;;5050884;28;20025;-59
2023/02/23 13:24:06;;;;;;;11.23;8.30;;;;;;;;;;5050591;28;20086;-59
2023/02/23 13:26:35;;;;;;;9.40;8.07;;;;;;;;;;5050395;28;20029;-61
2023/02/23 13:29:05;;;;;;;10.05;8.27;;;;;;;;;;5051094;28;20389;-60
2023/02/23 13:31:33;;;;;;;9.10;7.70;;;;;;;;;;5050684;28;20032;-65
2023/02/23 13:34:01;;;;;;;10.23;7.50;;;;;;;;;;5052629;28;20397;-65
2023/02/23 13:36:28;;;;;;;9.68;8.13;;;;;;;;;;5052848;28;20041;-61
2023/02/23 13:39:10;;;;;;;10.52;7.70;;;;;;;;;;5053382;28;20025;-60
2023/02/23 13:41:39;;;;;;;10.30;7.82;;;;;;;;;;5043930;28;20492;-64
2023/02/23 13:44:05;;;;;;;9.43;7.57;;;;;;;;;;5054907;28;20032;-64
2023/02/23 13:46:40;;;;;;;9.07;7.60;;;;;;;;;;5054582;28;20021;-60
2023/02/23 13:49:19;;;;;;;10.52;6.88;;;;;;;;;;5054791;28;20550;-61
2023/02/23 13:51:48;;;;;;;9.63;7.57;;;;;;;;;;5054834;28;20048;-64
2023/02/23 13:54:17;;;;;;;11.95;7.72;;;;;;;;;;5052503;28;20077;-62
2023/02/23 13:56:44;;;;;;;9.35;8.02;;;;;;;;;;5054609;28;20441;-59
2023/02/23 13:59:16;;;;;;;10.63;7.85;;;;;;;;;;5053212;28;20303;-60
2023/02/23 14:01:47;;;;;;;8.02;6.65;;;;;;;;;;5054865;28;20108;-60
2023/02/23 14:04:15;;;;;;;8.80;7.28;;;;;;;;;;5052375;28;20527;-60
2023/02/23 14:06:52;;;;;;;9.25;7.75;;;;;;;;;;5036184;28;20405;-61
2023/02/23 14:09:29;;;;;;;8.60;7.07;;;;;;;;;;5034141;28;20120;-60
2023/02/23 14:12:12;;;;;;;9.27;7.53;;;;;;;;;;5034520;28;20096;-61
2023/02/23 14:14:43;;;;;;;9.35;7.20;;;;;;;;;;5034829;28;20112;-61
2023/02/23 14:17:09;;;;;;;9.27;7.80;;;;;;;;;;5034811;28;20045;-60
2023/02/23 14:19:36;;;;;;;10.15;7.47;;;;;;;;;;5035235;28;20029;-60
2023/02/23 14:22:09;;;;;;;12.30;8.30;;;;;;;;;;5034363;28;20036;-60
2023/02/23 14:24:35;;;;;;;10.10;7.90;;;;;;;;;;5034030;28;20490;-66
2023/02/23 14:27:02;;;;;;;10.25;7.65;;;;;;;;;;5034210;28;20505;-60
2023/02/23 14:29:30;;;;;;;9.80;7.95;;;;;;;;;;5033826;28;20064;-60
2023/02/23 14:31:59;;;;;;;10.93;8.30;;;;;;;;;;5034189;28;20026;-61
2023/02/23 14:34:44;;;;;;;9.55;8.02;;;;;;;;;;5034767;28;20033;-61
2023/02/23 14:37:23;;;;;;;10.90;7.65;;;;;;;;;;5034167;28;20559;-60
2023/02/23 14:39:50;;;;;;;11.98;7.97;;;;;;;;;;5033910;28;20040;-65
2023/02/23 14:42:21;;;;;;;10.00;7.78;;;;;;;;;;5033722;28;20105;-66
2023/02/23 14:44:50;;;;;;;10.40;8.00;;;;;;;;;;5033077;28;20093;-61
2023/02/23 14:47:17;;;;;;;10.48;6.60;;;;;;;;;;5042589;28;20035;-62
2023/02/23 14:49:54;;;;;;;11.82;8.25;;;;;;;;;;5034696;28;20021;-60
2023/02/23 14:52:25;;;;;;;9.07;6.93;;;;;;;;;;5033976;28;20494;-59
2023/02/23 14:54:52;;;;;;;9.32;7.28;;;;;;;;;;5036592;28;20033;-60
2023/02/23 14:57:23;;;;;;;8.80;6.70;;;;;;;;;;5035508;28;20116;-65
2023/02/23 14:59:53;;;;;;;10.73;7.15;;;;;;;;;;5036719;28;20036;-60
2023/02/23 15:02:23;;;;;;;10.75;7.32;;;;;;;;;;5032984;28;20035;-62
2023/02/23 15:04:49;;;;;;;8.80;6.68;;;;;;;;;;5033484;28;20478;-63
2023/02/23 15:07:24;;;;;;;10.77;7.82;;;;;;;;;;5042498;28;20025;-60
2023/02/23 15:09:51;;;;;;;9.60;7.43;;;;;;;;;;5053251;28;20086;-61
2023/02/23 15:12:27;;;;;;;9.02;7.20;;;;;;;;;;5038089;28;20030;-62
2023/02/23 15:14:58;;;;;;;10.93;7.10;;;;;;;;;;5033334;28;20022;-64
2023/02/23 15:17:25;;;;;;;9.23;6.72;;;;;;;;;;5033089;28;20033;-61
2023/02/23 15:19:57;;;;;;;7.35;6.40;;;;;;;;;;5033397;28;20402;-63
2023/02/23 15:22:25;;;;;;;8.55;7.13;;;;;;;;;;5033092;28;20478;-63
2023/02/23 15:24:51;;;;;;;8.45;6.65;;;;;;;;;;5033124;28;20167;-64
2023/02/23 15:27:25;;;;;;;9.20;6.47;;;;;;;;;;5045698;28;20025;-60
2023/02/23 15:29:51;;;;;;;9.70;6.38;;;;;;;;;;5053081;28;20025;-60
2023/02/23 15:32:23;;;;;;;7.45;6.40;;;;;;;;;;5052751;28;20397;-60
2023/02/23 15:34:50;;;;;;;8.15;6.30;;;;;;;;;;5052872;28;20125;-60
2023/02/23 15:37:28;;;;;;;7.45;5.95;;;;;;;;;;5052648;28;20166;-60
2023/02/23 15:40:04;;;;;;;7.95;5.55;;;;;;;;;;5051012;28;20162;-60
2023/02/23 15:42:38;;;;;;;8.88;6.47;;;;;;;;;;5034294;28;20079;-60
2023/02/23 15:45:13;;;;;;;6.50;5.63;;;;;;;;;;5032585;28;20029;-64
2023/02/23 15:47:39;;;;;;;6.80;5.70;;;;;;;;;;5033016;28;20025;-60
2023/02/23 15:50:08;;;;;;;7.50;5.85;;;;;;;;;;5032499;28;20279;-61
2023/02/23 15:52:39;;;;;;;6.95;5.95;;;;;;;;;;5032372;28;20026;-64
2023/02/23 15:55:09;;;;;;;8.10;6.00;;;;;;;;;;5032581;28;20493;-62
2023/02/23 15:57:52;;;;;;;6.43;5.38;;;;;;;;;;5032291;28;20044;-60
2023/02/23 16:00:31;;;;;;;7.07;5.35;;;;;;;;;;5033408;28;20033;-60
2023/02/23 16:02:57;;;;;;;7.15;5.80;;;;;;;;;;5012571;28;20030;-63
2023/02/23 16:05:24;;;;;;;6.65;5.72;;;;;;;;;;5012420;28;20511;-62